Time;durP1;ratioP1;P1;durP2;ratioP2;P2;SDS_P1;SDS_P2;PMS_P1;PMS_P2;Temp;Humidity;BMP_temperature;BMP_pressure;BME280_temperature;BME280_humidity;BME280_pressure;Samples;Min_cycle;Max_cycle;Signal;HPM_P1;HPM_P2
2023/08/16 00:01:02;;;;;;;9.70;6.40;;;;;;;17.39;83.08;100014.66;4915991;29;20054;-71
2023/08/16 00:03:27;;;;;;;16.45;6.63;;;;;;;17.38;83.26;100007.59;4917187;29;20498;-72
2023/08/16 00:05:55;;;;;;;11.77;7.93;;;;;;;17.37;83.34;100016.69;4915946;29;20051;-72
2023/08/16 00:08:23;;;;;;;11.20;8.05;;;;;;;17.32;83.24;100009.00;4917250;29;20028;-75
2023/08/16 00:10:50;;;;;;;15.65;7.53;;;;;;;17.31;83.49;100007.31;4917525;29;20058;-73
2023/08/16 00:13:22;;;;;;;8.48;6.30;;;;;;;17.27;83.52;100005.03;4917531;29;20867;-72
2023/08/16 00:15:47;;;;;;;10.10;6.90;;;;;;;17.27;83.56;100011.28;4917350;29;20058;-74
2023/08/16 00:19:04;;;;;;;8.52;6.97;;;;;;;17.24;83.53;100043.91;4917247;29;20050;-74
2023/08/16 00:21:31;;;;;;;10.73;6.63;;;;;;;17.23;83.97;100014.41;4931668;28;20051;-73
2023/08/16 00:23:59;;;;;;;11.73;6.50;;;;;;;17.21;83.96;100017.25;4917222;29;20545;-71
2023/08/16 00:26:25;;;;;;;11.82;6.78;;;;;;;17.19;83.99;99997.66;4917435;29;20047;-69
2023/08/16 00:28:51;;;;;;;12.48;7.00;;;;;;;17.17;84.05;100021.22;4915093;29;20063;-75
2023/08/16 00:31:18;;;;;;;9.73;6.05;;;;;;;17.15;84.27;100034.00;4911955;29;20055;-77
2023/08/16 00:33:43;;;;;;;8.73;6.82;;;;;;;17.14;84.23;100016.13;4917392;29;20043;-77
2023/08/16 00:36:08;;;;;;;11.35;7.15;;;;;;;17.13;84.61;100024.34;4931836;28;20513;-76
2023/08/16 00:38:35;;;;;;;13.82;7.93;;;;;;;17.09;84.47;100023.75;4932670;28;20050;-76
2023/08/16 00:41:04;;;;;;;12.18;6.80;;;;;;;17.09;84.53;100029.16;4915934;29;20525;-77
2023/08/16 00:43:32;;;;;;;9.85;7.07;;;;;;;17.07;84.81;100036.53;4916078;29;20175;-76
2023/08/16 00:49:12;;;;;;;10.02;6.55;;;;;;;17.03;84.96;100021.66;4916144;29;20054;-75
2023/08/16 00:51:40;;;;;;;11.85;6.95;;;;;;;17.01;85.10;100035.25;4917210;29;20390;-75
2023/08/16 00:57:22;;;;;;;10.63;7.07;;;;;;;16.97;85.13;100033.81;4918968;29;20046;-76
2023/08/16 00:59:50;;;;;;;10.38;6.45;;;;;;;16.94;85.44;100049.41;4935306;28;20066;-76
2023/08/16 01:02:21;;;;;;;11.98;6.90;;;;;;;16.96;85.56;100034.81;4916828;29;20403;-75
2023/08/16 01:04:47;;;;;;;13.30;6.78;;;;;;;16.88;85.80;100036.50;4931918;28;20422;-76
2023/08/16 01:07:14;;;;;;;10.55;6.38;;;;;;;16.87;85.81;100035.66;4916992;29;20051;-78
2023/08/16 01:09:43;;;;;;;9.55;6.70;;;;;;;16.83;86.10;100033.38;4916936;28;20043;-77
2023/08/16 01:12:55;;;;;;;11.20;6.93;;;;;;;16.88;86.27;100042.75;4922294;29;20066;-77
2023/08/16 01:15:34;;;;;;;9.82;6.40;;;;;;;16.82;86.21;100051.38;4919813;29;20051;-76
2023/08/16 01:18:25;;;;;;;14.82;7.03;;;;;;;16.79;86.17;100045.44;4906724;29;20052;-73
2023/08/16 01:20:55;;;;;;;9.63;6.82;;;;;;;16.76;86.42;100064.56;4923480;28;20489;-72
2023/08/16 01:23:42;;;;;;;11.90;7.05;;;;;;;16.79;86.70;100046.28;4919774;29;20058;-75
2023/08/16 01:26:37;;;;;;;11.23;6.57;;;;;;;16.78;86.48;100041.91;4905048;29;20055;-74
2023/08/16 01:29:04;;;;;;;11.60;6.40;;;;;;;16.68;86.76;100030.25;4884228;29;20056;-79
2023/08/16 01:31:36;;;;;;;10.05;6.60;;;;;;;16.64;86.57;100053.06;4908965;28;20035;-73
2023/08/16 01:34:04;;;;;;;8.60;6.45;;;;;;;16.62;86.79;100063.09;4936232;28;20051;-75
2023/08/16 01:36:30;;;;;;;11.68;6.40;;;;;;;16.57;87.09;100065.34;4902473;29;20055;-71
2023/08/16 01:39:04;;;;;;;10.25;6.80;;;;;;;16.60;87.28;100052.44;4933897;28;20050;-73
2023/08/16 01:41:42;;;;;;;11.00;6.45;;;;;;;16.56;87.53;100086.03;4919455;29;20046;-72
2023/08/16 01:44:09;;;;;;;11.45;7.07;;;;;;;16.53;87.33;100075.53;4919567;29;20043;-72
2023/08/16 01:46:40;;;;;;;9.15;6.53;;;;;;;16.53;87.61;100061.22;4918010;29;20418;-71
2023/08/16 01:49:07;;;;;;;11.25;6.30;;;;;;;16.50;87.80;100075.78;4934204;28;20047;-68
2023/08/16 01:51:36;;;;;;;11.68;6.15;;;;;;;16.49;87.72;100063.31;4919372;29;20058;-71
2023/08/16 01:54:03;;;;;;;7.05;5.68;;;;;;;16.49;88.14;100100.13;4934280;28;20042;-73
2023/08/16 01:56:28;;;;;;;13.75;7.45;;;;;;;16.46;88.34;100063.59;4902006;29;20386;-73
2023/08/16 01:58:53;;;;;;;10.35;6.32;;;;;;;16.45;88.38;100066.44;4933946;28;20066;-72
2023/08/16 02:01:19;;;;;;;9.35;6.07;;;;;;;16.44;88.36;100070.97;4934299;28;20501;-75
2023/08/16 02:03:44;;;;;;;10.95;6.25;;;;;;;16.42;88.70;100055.94;4917958;29;20043;-70
2023/08/16 02:06:09;;;;;;;10.68;6.72;;;;;;;16.45;88.55;100075.34;4918876;29;20051;-70
2023/08/16 02:08:35;;;;;;;8.60;6.25;;;;;;;16.43;88.83;100077.34;4918997;29;20050;-70
2023/08/16 02:11:00;;;;;;;9.02;6.82;;;;;;;16.43;88.71;100081.84;4918580;29;20058;-71
2023/08/16 02:13:50;;;;;;;8.88;6.28;;;;;;;16.42;88.67;100104.38;4917898;29;20046;-72
2023/08/16 02:16:25;;;;;;;8.75;6.45;;;;;;;16.42;88.44;100085.53;4918913;29;20054;-71
2023/08/16 02:19:16;;;;;;;11.85;6.78;;;;;;;16.42;88.40;100082.84;4931655;29;20051;-71
2023/08/16 02:21:43;;;;;;;10.75;6.82;;;;;;;16.42;88.54;100104.38;4930060;28;20043;-71
2023/08/16 02:24:10;;;;;;;9.68;6.63;;;;;;;16.45;88.92;100090.66;4934693;29;20054;-71
2023/08/16 02:26:36;;;;;;;11.13;6.43;;;;;;;16.47;88.62;100094.06;4932128;29;20418;-72
2023/08/16 02:29:03;;;;;;;8.73;6.60;;;;;;;16.49;88.45;100092.06;4921638;29;20043;-75
2023/08/16 02:31:31;;;;;;;9.80;6.65;;;;;;;16.53;88.45;100080.06;4894068;29;20058;-81
2023/08/16 02:33:59;;;;;;;10.27;7.00;;;;;;;16.58;88.31;100104.72;4907276;29;20051;-81
2023/08/16 02:36:25;;;;;;;8.80;5.97;;;;;;;16.64;87.47;100106.91;4904626;29;20062;-82
2023/08/16 02:38:54;;;;;;;9.55;6.32;;;;;;;16.69;87.49;100086.66;4904025;29;20054;-81
2023/08/16 02:41:24;;;;;;;9.88;6.72;;;;;;;16.75;87.24;100089.78;4907007;29;20055;-82
2023/08/16 02:43:50;;;;;;;14.63;6.70;;;;;;;16.81;86.97;100094.63;4904745;29;20418;-81
2023/08/16 02:46:18;;;;;;;12.10;6.78;;;;;;;16.87;86.54;100089.53;4917123;29;20058;-82
2023/08/16 02:48:43;;;;;;;12.02;6.25;;;;;;;16.95;86.27;100103.13;4917281;29;20054;-80
2023/08/16 02:51:09;;;;;;;11.82;6.38;;;;;;;17.04;86.30;100085.31;4921342;29;20051;-81
2023/08/16 02:53:34;;;;;;;13.38;7.40;;;;;;;17.14;86.03;100106.88;4919233;29;20054;-81
2023/08/16 02:56:01;;;;;;;9.93;6.30;;;;;;;17.26;85.42;100094.97;4919608;29;20051;-81
2023/08/16 02:58:29;;;;;;;10.30;6.28;;;;;;;17.37;85.12;100092.13;4920109;28;20067;-81
2023/08/16 03:00:54;;;;;;;8.63;5.85;;;;;;;17.48;84.63;100110.88;4903973;28;20043;-79
2023/08/16 03:03:24;;;;;;;9.52;5.97;;;;;;;17.61;84.11;100060.16;4903197;29;20058;-82
2023/08/16 03:08:41;;;;;;;10.38;5.70;;;;;;;17.84;83.27;100100.31;4916561;29;20418;-82
2023/08/16 03:11:06;;;;;;;11.93;6.65;;;;;;;17.96;82.29;100099.16;4932093;28;20047;-83
2023/08/16 03:13:32;;;;;;;10.05;6.13;;;;;;;18.06;81.41;100105.38;4902829;29;20058;-85
2023/08/16 03:16:24;;;;;;;12.13;6.70;;;;;;;18.29;80.58;100101.34;4919408;29;20047;-82
2023/08/16 03:21:40;;;;;;;9.73;5.97;;;;;;;18.46;79.67;100095.19;4917599;29;20794;-80
2023/08/16 03:24:07;;;;;;;7.85;5.68;;;;;;;18.56;78.42;100102.38;4919345;29;20055;-83
2023/08/16 03:26:39;;;;;;;13.80;6.82;;;;;;;18.68;77.71;100104.75;4918905;29;20047;-82
2023/08/16 03:29:11;;;;;;;10.52;7.03;;;;;;;18.76;77.60;100114.81;4902967;29;20058;-82
2023/08/16 03:31:39;;;;;;;10.90;5.43;;;;;;;18.84;76.76;100104.13;4932010;28;20064;-79
2023/08/16 03:34:36;;;;;;;10.20;6.15;;;;;;;19.05;76.55;100107.41;4899377;29;20059;-81
2023/08/16 03:37:03;;;;;;;8.43;5.97;;;;;;;19.09;75.93;100111.47;4915276;29;20055;-77
2023/08/16 03:39:28;;;;;;;10.18;6.03;;;;;;;19.20;75.17;100135.59;4913836;29;20529;-79
2023/08/16 03:47:35;;;;;;;12.88;5.65;;;;;;;19.54;72.52;100110.59;4904186;29;20047;-81
2023/08/16 03:50:27;;;;;;;6.90;5.30;;;;;;;19.79;72.59;100109.78;4900993;29;20051;-81
2023/08/16 03:55:59;;;;;;;8.38;5.68;;;;;;;20.02;71.44;100114.69;4933798;28;20058;-76
2023/08/16 03:58:26;;;;;;;11.50;5.68;;;;;;;20.03;70.73;100121.81;4933794;28;20054;-76
2023/08/16 04:00:53;;;;;;;10.93;6.38;;;;;;;20.12;70.69;100120.84;4932246;28;20062;-76
2023/08/16 04:03:20;;;;;;;9.23;5.95;;;;;;;20.27;70.30;100133.66;4916489;29;20051;-76
2023/08/16 04:05:46;;;;;;;9.45;6.00;;;;;;;20.39;69.47;100118.03;4916483;29;20054;-77
2023/08/16 04:08:14;;;;;;;9.23;5.70;;;;;;;20.58;69.36;100128.59;4916858;29;20043;-76
2023/08/16 04:10:43;;;;;;;9.93;5.63;;;;;;;20.75;68.67;100112.44;4917112;29;20409;-76
2023/08/16 04:13:09;;;;;;;16.77;6.22;;;;;;;20.89;67.40;100136.19;4916216;29;20509;-77
2023/08/16 04:15:34;;;;;;;9.65;6.18;;;;;;;21.07;66.99;100123.38;4900193;29;20094;-76
2023/08/16 04:18:25;;;;;;;10.35;6.30;;;;;;;21.28;66.59;100134.66;4916795;29;20054;-77
2023/08/16 04:20:52;;;;;;;9.30;5.70;;;;;;;21.41;65.76;100130.59;4916295;29;20043;-75
2023/08/16 04:23:19;;;;;;;10.80;5.80;;;;;;;21.50;65.23;100138.59;4916241;28;20054;-75
2023/08/16 04:25:50;;;;;;;11.20;6.40;;;;;;;21.74;64.81;100149.47;4916706;29;20047;-76
2023/08/16 04:28:20;;;;;;;11.25;5.55;;;;;;;22.11;64.00;100129.13;4900317;29;20054;-75
2023/08/16 04:30:46;;;;;;;12.52;5.35;;;;;;;22.41;62.98;100078.63;4928078;28;20050;-78
2023/08/16 04:33:13;;;;;;;12.32;6.22;;;;;;;22.69;61.56;100139.66;4921240;28;20528;-77
2023/08/16 04:35:38;;;;;;;10.90;5.72;;;;;;;23.00;61.07;100109.84;4937337;28;20047;-77
2023/08/16 04:38:05;;;;;;;8.70;5.80;;;;;;;23.28;59.26;100128.34;4938772;28;20057;-77
2023/08/16 04:40:31;;;;;;;11.85;6.57;;;;;;;23.53;58.95;100117.16;4937797;28;20046;-77
2023/08/16 04:42:57;;;;;;;10.95;5.35;;;;;;;23.77;58.00;100120.72;4935107;28;20055;-74
2023/08/16 04:45:22;;;;;;;11.13;5.57;;;;;;;24.04;57.41;100109.22;4936647;28;20042;-74
2023/08/16 04:48:37;;;;;;;10.55;5.20;;;;;;;24.43;56.16;100110.91;4938570;28;20043;-75
2023/08/16 04:51:04;;;;;;;9.07;5.50;;;;;;;24.74;55.63;100116.16;4919956;29;20043;-75
2023/08/16 04:53:30;;;;;;;8.80;6.15;;;;;;;24.93;54.80;100135.56;4919810;29;20520;-76
2023/08/16 04:55:56;;;;;;;10.88;6.20;;;;;;;25.03;53.38;100120.78;4919896;29;20062;-76
2023/08/16 04:58:21;;;;;;;8.27;5.40;;;;;;;25.05;53.26;100114.09;4903762;29;20055;-75
2023/08/16 05:00:53;;;;;;;10.80;6.00;;;;;;;25.22;52.98;100137.38;4921155;28;20536;-79
2023/08/16 05:03:50;;;;;;;11.75;6.30;;;;;;;25.55;52.85;100107.72;4923097;29;20050;-79
2023/08/16 05:06:24;;;;;;;11.65;6.10;;;;;;;25.65;51.88;100137.44;4906561;29;20054;-79
2023/08/16 05:08:53;;;;;;;9.35;6.65;;;;;;;25.72;51.60;100127.47;4921537;29;20043;-79
2023/08/16 05:11:21;;;;;;;11.63;7.03;;;;;;;25.90;51.75;100110.59;4921913;29;20505;-77
2023/08/16 05:13:48;;;;;;;13.52;6.82;;;;;;;26.33;50.85;100114.94;4906159;29;20055;-78
2023/08/16 05:16:14;;;;;;;11.93;8.05;;;;;;;26.72;49.53;100111.59;4905300;29;20054;-80
2023/08/16 05:18:40;;;;;;;10.65;7.10;;;;;;;27.18;49.05;100112.88;4940186;28;20055;-77
2023/08/16 05:21:06;;;;;;;13.18;8.35;;;;;;;27.58;47.83;100111.94;4904909;29;20055;-77
2023/08/16 05:23:35;;;;;;;13.00;7.72;;;;;;;27.92;47.36;100121.03;4920927;29;20058;-78
2023/08/16 05:26:04;;;;;;;10.80;7.25;;;;;;;27.96;46.44;100127.81;4904717;29;20478;-79
2023/08/16 05:28:56;;;;;;;13.95;7.35;;;;;;;28.18;45.32;100108.22;4935600;28;20485;-77
2023/08/16 05:31:21;;;;;;;15.27;6.30;;;;;;;28.25;46.08;100110.09;4920055;29;20047;-80
2023/08/16 05:33:47;;;;;;;13.88;6.68;;;;;;;28.51;45.74;100138.31;4922696;29;20441;-80
2023/08/16 05:36:12;;;;;;;10.95;5.57;;;;;;;28.96;44.84;100108.25;4922887;29;20054;-79
2023/08/16 05:38:38;;;;;;;11.00;6.07;;;;;;;29.61;43.53;100107.06;4922502;29;20043;-81
2023/08/16 05:41:04;;;;;;;8.40;6.07;;;;;;;30.10;42.63;100127.44;4905156;29;20077;-80
2023/08/16 05:43:31;;;;;;;11.52;5.85;;;;;;;30.50;40.69;100121.53;4921440;29;20051;-80
2023/08/16 05:46:48;;;;;;;12.13;5.97;;;;;;;31.21;39.52;100108.06;4920994;28;20414;-80
2023/08/16 05:49:39;;;;;;;12.82;8.07;;;;;;;31.96;37.33;100104.81;4922047;29;20073;-79
2023/08/16 05:52:05;;;;;;;14.25;8.05;;;;;;;32.17;37.62;100106.19;4920759;29;20058;-79
2023/08/16 05:54:35;;;;;;;13.23;8.48;;;;;;;32.28;36.21;100113.66;4920496;29;20064;-78
2023/08/16 05:57:00;;;;;;;15.23;7.85;;;;;;;32.49;36.29;100093.72;4904671;29;20047;-78
2023/08/16 05:59:26;;;;;;;15.77;7.53;;;;;;;32.93;36.27;100110.72;4936772;28;20501;-78
2023/08/16 06:01:51;;;;;;;14.55;7.35;;;;;;;33.51;35.04;100103.06;4960336;28;20049;-78
2023/08/16 06:04:20;;;;;;;17.02;7.60;;;;;;;34.18;34.17;100092.06;4942105;28;20053;-78
2023/08/16 06:06:45;;;;;;;11.70;6.40;;;;;;;34.87;33.12;100117.50;4941169;28;20505;-78
2023/08/16 06:12:01;;;;;;;7.38;4.60;;;;;;;36.13;31.41;100103.28;4958263;28;20038;-76
2023/08/16 06:14:32;;;;;;;6.93;5.10;;;;;;;36.62;30.46;100112.25;4941147;28;20061;-78
2023/08/16 06:20:15;;;;;;;12.85;5.03;;;;;;;37.74;29.10;100123.84;4958789;28;20050;-77
2023/08/16 06:22:41;;;;;;;7.18;5.03;;;;;;;38.12;28.63;100092.72;4956384;28;20054;-79
2023/08/16 06:25:09;;;;;;;7.93;4.82;;;;;;;38.27;27.55;100099.34;4927724;28;20057;-79
2023/08/16 06:27:36;;;;;;;8.85;4.93;;;;;;;38.65;27.36;100103.50;4957669;28;20042;-79
2023/08/16 06:30:03;;;;;;;7.57;4.45;;;;;;;39.08;26.96;100094.41;4941391;28;20053;-77
2023/08/16 06:32:34;;;;;;;8.55;4.68;;;;;;;39.48;26.27;100082.25;4958198;28;20423;-79
2023/08/16 06:35:05;;;;;;;7.72;5.43;;;;;;;40.07;25.80;100083.19;4958874;28;20493;-78
2023/08/16 06:37:32;;;;;;;6.57;5.53;;;;;;;40.55;25.40;100089.69;4957995;28;20416;-78
2023/08/16 06:40:26;;;;;;;8.10;5.10;;;;;;;41.08;25.17;100078.44;4942499;28;20524;-79
2023/08/16 06:42:51;;;;;;;7.25;4.93;;;;;;;41.41;24.41;100085.84;4941066;28;20065;-77
2023/08/16 06:45:18;;;;;;;10.00;5.70;;;;;;;41.90;23.91;100090.09;4941223;28;20065;-79
2023/08/16 06:47:43;;;;;;;9.27;4.88;;;;;;;42.38;23.43;100087.91;4926414;28;20050;-81
2023/08/16 06:50:33;;;;;;;8.63;5.90;;;;;;;43.27;23.61;100077.09;4926496;28;20064;-80
2023/08/16 06:52:59;;;;;;;7.45;5.28;;;;;;;43.21;22.20;100072.75;4942068;28;20058;-81
2023/08/16 06:55:24;;;;;;;6.20;5.60;;;;;;;43.41;21.54;100071.44;4941209;28;20504;-80
2023/08/16 06:57:50;;;;;;;7.82;6.15;;;;;;;43.63;21.15;100074.28;4959752;28;20050;-80
2023/08/16 07:03:09;;;;;;;8.13;5.72;;;;;;;44.08;20.91;100068.69;4919867;29;20055;-82
2023/08/16 07:06:01;;;;;;;6.82;5.72;;;;;;;44.58;21.08;100072.09;4904046;29;20514;-80
2023/08/16 07:08:28;;;;;;;6.57;5.97;;;;;;;44.29;20.22;100069.78;4903319;29;20047;-78
2023/08/16 07:10:57;;;;;;;8.93;5.82;;;;;;;44.59;20.40;100079.34;4919851;29;20043;-79
2023/08/16 07:13:22;;;;;;;7.28;6.45;;;;;;;44.91;19.59;100081.00;4888281;29;20528;-82
2023/08/16 07:15:49;;;;;;;6.75;6.15;;;;;;;45.45;19.25;100093.69;4904663;28;20059;-78
2023/08/16 07:18:16;;;;;;;6.47;5.88;;;;;;;45.90;19.24;100062.41;4935150;28;20047;-78
2023/08/16 07:20:41;;;;;;;7.63;6.45;;;;;;;46.16;18.68;100082.06;4920176;29;20051;-79
2023/08/16 07:23:06;;;;;;;7.13;6.32;;;;;;;46.44;18.25;100071.19;4921065;29;20039;-81
2023/08/16 07:25:59;;;;;;;11.90;6.55;;;;;;;47.33;18.50;100070.06;4935606;28;20051;-82
2023/08/16 07:28:27;;;;;;;8.15;7.15;;;;;;;47.18;17.27;100062.22;4936576;29;20051;-79
2023/08/16 07:30:55;;;;;;;8.10;7.40;;;;;;;47.56;16.89;100068.56;4926914;28;20043;-83
2023/08/16 07:33:22;;;;;;;8.75;7.68;;;;;;;47.83;16.49;100072.00;4926431;29;20061;-80
2023/08/16 07:38:40;;;;;;;33.13;29.77;;;;;;;48.18;16.15;100066.81;4924139;29;20043;-81
2023/08/16 07:41:07;;;;;;;9.10;8.40;;;;;;;48.20;15.81;100070.94;4918732;29;20073;-82
2023/08/16 07:43:34;;;;;;;8.63;7.93;;;;;;;47.44;16.84;100076.97;4903825;29;20410;-80
2023/08/16 07:46:24;;;;;;;11.05;8.95;;;;;;;47.28;16.81;100067.44;4926262;28;20058;-82
2023/08/16 07:48:56;;;;;;;9.38;8.48;;;;;;;47.70;16.44;100051.31;4919031;29;20051;-80
2023/08/16 07:51:21;;;;;;;9.85;8.30;;;;;;;47.98;16.52;100068.50;4903371;29;20054;-82
2023/08/16 07:53:47;;;;;;;8.25;7.57;;;;;;;48.18;16.35;100042.19;4902921;29;20050;-79
2023/08/16 07:56:16;;;;;;;9.20;8.50;;;;;;;48.53;15.85;100078.56;4918961;29;20055;-80
2023/08/16 07:58:48;;;;;;;9.48;8.77;;;;;;;48.98;15.69;100056.66;4908483;28;20066;-81
2023/08/16 08:01:39;;;;;;;10.40;9.30;;;;;;;50.06;15.62;100056.66;4925284;28;20089;-80
2023/08/16 08:04:09;;;;;;;11.73;9.90;;;;;;;49.67;14.86;100051.84;4942093;28;20042;-82
2023/08/16 08:06:46;;;;;;;12.40;11.43;;;;;;;50.00;14.50;100040.28;4956953;28;20053;-78
2023/08/16 08:09:14;;;;;;;11.32;10.55;;;;;;;50.20;14.56;100038.38;4940075;28;20058;-79
2023/08/16 08:11:40;;;;;;;11.52;10.63;;;;;;;50.30;14.47;100043.50;4923854;28;20058;-79
2023/08/16 08:14:06;;;;;;;11.05;10.25;;;;;;;50.49;14.14;100038.72;4939268;28;20042;-79
2023/08/16 08:16:56;;;;;;;12.13;11.32;;;;;;;51.59;13.54;100043.34;4925736;28;20420;-80
2023/08/16 08:19:22;;;;;;;12.65;11.85;;;;;;;51.22;13.65;100045.81;4942070;28;20429;-79
2023/08/16 08:21:47;;;;;;;13.40;12.50;;;;;;;51.37;13.71;100063.97;4961115;28;20054;-81
2023/08/16 08:24:12;;;;;;;14.05;12.95;;;;;;;51.70;13.35;100052.91;4960896;28;20488;-79
2023/08/16 08:26:38;;;;;;;15.45;14.35;;;;;;;52.00;13.04;100035.22;4961347;28;20046;-79
2023/08/16 08:29:10;;;;;;;17.05;15.93;;;;;;;52.15;12.77;100031.47;4961694;28;20038;-80
2023/08/16 08:32:01;;;;;;;16.93;15.83;;;;;;;53.27;12.16;100037.38;4962190;28;20057;-79
2023/08/16 08:34:26;;;;;;;17.33;16.30;;;;;;;52.71;12.53;100040.19;4944402;28;20053;-80
2023/08/16 08:36:52;;;;;;;17.90;16.80;;;;;;;52.28;12.37;100030.06;4943632;28;20497;-79
2023/08/16 08:39:23;;;;;;;16.77;15.77;;;;;;;52.28;12.37;100030.06;4961032;28;20042;-78
2023/08/16 08:42:14;;;;;;;19.00;17.98;;;;;;;52.77;12.16;100034.94;4962025;28;20054;-79
2023/08/16 08:44:42;;;;;;;15.25;14.35;;;;;;;52.10;12.50;100028.91;4960035;28;20077;-81
2023/08/16 08:47:33;;;;;;;17.88;16.85;;;;;;;53.38;13.00;100025.28;4943791;28;20389;-80
2023/08/16 08:52:53;;;;;;;18.42;17.15;;;;;;;52.44;12.13;100035.63;4961148;28;20408;-83
2023/08/16 08:55:20;;;;;;;19.05;17.65;;;;;;;52.37;12.24;100033.50;4960505;28;20042;-80
2023/08/16 08:57:50;;;;;;;19.65;18.25;;;;;;;52.71;12.34;100030.81;4927380;28;20061;-83
2023/08/16 09:00:18;;;;;;;22.52;21.17;;;;;;;52.74;12.12;100030.84;4927149;28;20055;-81
2023/08/16 09:02:50;;;;;;;20.77;19.38;;;;;;;52.98;11.86;100040.16;4921498;29;20043;-84
2023/08/16 09:05:20;;;;;;;22.42;21.23;;;;;;;53.35;11.66;100017.50;4905818;29;20081;-84
2023/08/16 09:07:46;;;;;;;24.17;22.70;;;;;;;52.97;11.81;100010.84;4922024;29;20039;-82
2023/08/16 09:10:13;;;;;;;22.13;20.65;;;;;;;52.93;12.29;100029.94;4921907;28;20505;-78
2023/08/16 09:12:39;;;;;;;24.45;23.23;;;;;;;53.28;12.15;100038.97;4905229;29;20055;-77
2023/08/16 09:15:07;;;;;;;24.17;22.77;;;;;;;53.62;11.92;100019.03;4905389;29;20051;-82
2023/08/16 09:17:32;;;;;;;25.90;24.10;;;;;;;54.08;11.53;100013.84;4919080;28;20051;-83
2023/08/16 09:19:59;;;;;;;28.00;26.55;;;;;;;53.87;11.71;100025.88;4919401;28;20047;-82
2023/08/16 09:22:25;;;;;;;26.05;24.75;;;;;;;53.58;11.52;100015.34;4923420;29;20058;-83
2023/08/16 09:25:16;;;;;;;24.85;23.35;;;;;;;53.29;12.07;100008.44;4922790;29;20053;-85
2023/08/16 09:27:41;;;;;;;24.67;23.23;;;;;;;52.26;13.01;100018.25;4919466;29;20051;-84
2023/08/16 09:30:13;;;;;;;22.85;21.45;;;;;;;51.58;12.94;100018.97;4919319;28;20043;-78
2023/08/16 09:32:38;;;;;;;21.55;20.05;;;;;;;50.58;13.55;100003.69;4918585;29;20050;-78
2023/08/16 09:35:29;;;;;;;18.33;16.75;;;;;;;50.87;13.39;100002.34;4920315;29;20039;-78
2023/08/16 09:38:00;;;;;;;21.42;20.17;;;;;;;49.76;14.08;100018.53;4920676;29;20039;-78
2023/08/16 09:40:52;;;;;;;20.45;19.08;;;;;;;49.27;14.23;100001.72;4907849;29;20518;-79
2023/08/16 09:43:21;;;;;;;18.58;17.13;;;;;;;48.28;14.76;99992.84;4905029;29;20066;-79
2023/08/16 09:45:53;;;;;;;14.77;13.77;;;;;;;46.99;15.77;100003.34;4922423;29;20051;-79
2023/08/16 09:48:46;;;;;;;12.07;10.98;;;;;;;46.58;15.97;99985.19;4921232;29;20054;-79
2023/08/16 09:51:13;;;;;;;10.57;9.77;;;;;;;46.89;15.69;99992.47;4922358;29;20481;-80
2023/08/16 09:53:46;;;;;;;10.05;9.05;;;;;;;47.37;15.76;100020.22;4920639;29;20039;-80
2023/08/16 09:56:14;;;;;;;9.23;8.40;;;;;;;45.98;16.38;99996.72;4904078;29;20054;-81
2023/08/16 09:58:40;;;;;;;8.52;7.63;;;;;;;44.71;17.68;100026.13;4925793;28;20530;-78
2023/08/16 10:01:06;;;;;;;9.00;8.23;;;;;;;43.43;18.82;100008.22;4943218;28;20061;-80
2023/08/16 10:03:37;;;;;;;7.30;6.60;;;;;;;43.37;18.87;100014.25;4941690;28;20535;-80
2023/08/16 10:06:10;;;;;;;8.48;7.78;;;;;;;43.80;18.19;99986.50;4924499;28;20046;-81
2023/08/16 10:08:39;;;;;;;7.93;7.22;;;;;;;43.59;18.22;100005.03;4941786;28;20053;-79
2023/08/16 10:11:06;;;;;;;7.90;7.20;;;;;;;42.90;19.06;99993.16;4958716;28;20041;-82
2023/08/16 10:13:32;;;;;;;8.57;6.93;;;;;;;42.18;19.74;100007.81;4906878;28;20078;-80
2023/08/16 10:15:58;;;;;;;9.02;6.55;;;;;;;42.25;19.79;100008.22;4923221;28;20050;-80
2023/08/16 10:18:28;;;;;;;7.55;6.85;;;;;;;42.97;19.07;99991.59;4926594;28;20138;-82
2023/08/16 10:21:24;;;;;;;7.00;6.40;;;;;;;43.80;18.16;99989.31;4925985;28;20050;-84
2023/08/16 10:23:55;;;;;;;7.63;6.60;;;;;;;43.41;18.24;99990.03;4926901;28;20427;-80
2023/08/16 10:26:23;;;;;;;7.43;5.68;;;;;;;42.49;19.58;99991.25;4942776;28;20563;-80
2023/08/16 10:29:16;;;;;;;6.03;5.53;;;;;;;40.82;20.25;99992.09;4929292;28;20054;-78
2023/08/16 10:31:47;;;;;;;8.82;5.45;;;;;;;39.11;21.49;99978.69;4942997;28;20501;-78
2023/08/16 10:34:44;;;;;;;8.13;5.07;;;;;;;37.98;22.94;99988.56;4942001;28;20054;-80
2023/08/16 10:37:41;;;;;;;5.28;4.78;;;;;;;35.89;25.03;99994.59;4939777;28;20527;-82
2023/08/16 10:40:21;;;;;;;6.90;4.53;;;;;;;34.98;26.39;99990.16;4940602;28;20050;-78
2023/08/16 10:43:02;;;;;;;6.95;4.45;;;;;;;34.06;28.10;99997.25;4923208;28;20053;-75
2023/08/16 10:45:33;;;;;;;4.55;3.95;;;;;;;33.36;28.52;99994.13;4957301;28;20901;-76
2023/08/16 10:48:12;;;;;;;8.98;5.45;;;;;;;32.99;29.33;100000.06;4940514;28;20049;-77
2023/08/16 10:51:07;;;;;;;6.25;4.85;;;;;;;32.32;29.79;99988.72;4959150;28;20057;-80
2023/08/16 10:53:34;;;;;;;7.28;4.35;;;;;;;31.99;29.93;99994.88;4958318;28;20042;-79
2023/08/16 10:56:05;;;;;;;5.70;4.13;;;;;;;31.77;31.06;99984.69;4941955;28;20057;-84
2023/08/16 10:58:49;;;;;;;4.85;3.80;;;;;;;31.56;31.07;99981.41;4941850;28;20138;-83
2023/08/16 11:01:18;;;;;;;4.82;4.35;;;;;;;31.13;31.85;99976.16;4942946;28;20512;-83
2023/08/16 11:03:44;;;;;;;6.88;4.00;;;;;;;30.87;32.36;99990.28;4942536;28;20046;-84
2023/08/16 11:06:12;;;;;;;7.43;4.68;;;;;;;30.65;32.24;99982.53;4960187;28;20511;-82
2023/08/16 11:08:41;;;;;;;5.00;3.72;;;;;;;30.44;32.35;99974.75;4942277;28;20515;-81
2023/08/16 11:11:06;;;;;;;4.90;3.55;;;;;;;30.25;32.24;99971.13;4942505;28;20045;-82
2023/08/16 11:13:37;;;;;;;6.75;3.70;;;;;;;29.98;32.75;99990.94;4959501;28;20188;-87
2023/08/16 11:16:02;;;;;;;8.30;4.20;;;;;;;29.79;33.89;99959.78;4941095;28;20393;-86
2023/08/16 11:18:33;;;;;;;4.78;4.20;;;;;;;29.77;34.01;99929.78;4923755;28;20508;-87
2023/08/16 11:21:00;;;;;;;6.68;3.80;;;;;;;29.64;33.97;99989.53;4923766;28;20049;-86
2023/08/16 11:23:40;;;;;;;6.88;4.35;;;;;;;29.67;34.30;99967.94;4922554;28;20062;-74
2023/08/16 11:26:09;;;;;;;5.90;4.07;;;;;;;29.57;34.76;99978.59;4955836;28;20054;-72
2023/08/16 11:28:38;;;;;;;6.45;3.90;;;;;;;29.51;35.01;99952.00;4955896;28;20049;-73
2023/08/16 11:31:08;;;;;;;5.40;4.10;;;;;;;29.42;34.65;99970.69;4955948;28;20046;-73
2023/08/16 11:33:36;;;;;;;6.13;3.83;;;;;;;29.30;35.53;99982.59;4955844;28;20053;-73
2023/08/16 11:36:05;;;;;;;4.07;3.67;;;;;;;29.16;35.54;99973.59;4956034;28;20050;-73
2023/08/16 11:38:34;;;;;;;6.47;4.13;;;;;;;28.99;35.96;99958.75;4956755;28;20394;-77
2023/08/16 11:41:03;;;;;;;7.05;4.40;;;;;;;28.80;36.51;99974.25;4938687;28;20073;-74
2023/08/16 11:43:32;;;;;;;5.80;4.00;;;;;;;28.61;37.17;99966.94;4955964;28;20030;-74
2023/08/16 11:45:59;;;;;;;8.82;4.70;;;;;;;28.44;37.81;99969.34;4938884;28;20050;-74
2023/08/16 11:48:29;;;;;;;7.70;3.95;;;;;;;28.25;37.01;99968.34;4938531;28;20050;-73
2023/08/16 11:50:59;;;;;;;6.15;3.80;;;;;;;28.12;38.15;99968.34;4955560;28;20041;-73
2023/08/16 11:53:36;;;;;;;7.85;4.22;;;;;;;28.05;37.95;99967.53;4952422;28;20042;-70
2023/08/16 11:56:08;;;;;;;6.10;4.10;;;;;;;27.81;37.98;99958.09;4938485;28;20046;-71
2023/08/16 11:58:45;;;;;;;5.85;3.90;;;;;;;27.74;38.31;99966.34;4954787;28;20053;-71
2023/08/16 12:01:44;;;;;;;7.13;4.30;;;;;;;27.63;39.03;99956.03;4948509;28;20057;-72
2023/08/16 12:04:09;;;;;;;7.18;4.70;;;;;;;27.53;38.70;99950.13;4937753;28;20053;-74
2023/08/16 12:06:46;;;;;;;8.32;4.82;;;;;;;27.60;39.38;99964.69;4938606;28;20054;-72
2023/08/16 12:10:01;;;;;;;5.18;3.55;;;;;;;27.47;38.61;99960.00;4943501;28;20057;-72
2023/08/16 12:12:33;;;;;;;4.10;3.63;;;;;;;27.44;38.85;99954.09;4954751;28;20065;-72
2023/08/16 12:15:00;;;;;;;7.18;3.55;;;;;;;27.36;40.11;99954.31;4937997;28;20058;-73
2023/08/16 12:20:42;;;;;;;4.78;3.58;;;;;;;27.27;39.13;99941.91;4953997;28;20049;-71